Time;durP1;ratioP1;P1;durP2;ratioP2;P2;SDS_P1;SDS_P2;PMS_P1;PMS_P2;Temp;Humidity;BMP_temperature;BMP_pressure;BME280_temperature;BME280_humidity;BME280_pressure;Samples;Min_cycle;Max_cycle;Signal;HPM_P1;HPM_P2
2022/07/03 00:02:42;0.00;0.00;0.62;0.00;0.00;0.62;2.67;2.03;;;28.10;25.40;;;;;;2258942;61;20476;-58
2022/07/03 00:05:27;0.00;0.00;0.62;0.00;0.00;0.62;2.23;2.03;;;28.10;25.50;;;;;;2259252;61;20360;-51
2022/07/03 00:08:13;0.00;0.00;0.62;0.00;0.00;0.62;2.50;2.03;;;28.10;25.50;;;;;;2258479;61;20981;-58
2022/07/03 00:10:59;0.00;0.00;0.62;0.00;0.00;0.62;2.90;2.17;;;28.10;25.60;;;;;;2259569;61;20384;-58
2022/07/03 00:13:44;0.00;0.00;0.62;0.00;0.00;0.62;2.57;2.13;;;28.10;25.60;;;;;;2259010;61;20357;-58
2022/07/03 00:16:29;0.00;0.00;0.62;0.00;0.00;0.62;3.20;1.70;;;28.10;25.70;;;;;;2258873;61;20364;-58
2022/07/03 00:19:14;0.00;0.00;0.62;0.00;0.00;0.62;2.20;1.90;;;28.10;25.70;;;;;;2259549;61;20380;-58
2022/07/03 00:22:05;0.00;0.00;0.62;0.00;0.00;0.62;2.10;1.80;;;28.10;25.70;;;;;;2258250;61;21311;-56
2022/07/03 00:24:57;0.00;0.00;0.62;0.00;0.00;0.62;2.40;2.20;;;28.10;25.80;;;;;;2259418;61;20415;-58
2022/07/03 00:27:45;0.00;0.00;0.62;0.00;0.00;0.62;3.33;2.00;;;28.10;25.80;;;;;;2259240;61;20384;-55
2022/07/03 00:30:30;0.00;0.00;0.62;0.00;0.00;0.62;2.30;2.03;;;28.10;25.90;;;;;;2257725;61;20400;-55
2022/07/03 00:33:16;0.00;0.00;0.62;0.00;0.00;0.62;3.20;2.00;;;28.10;25.90;;;;;;2259097;61;20357;-56
2022/07/03 00:36:04;0.00;0.00;0.62;0.00;0.00;0.62;2.80;2.20;;;28.10;26.00;;;;;;2259452;61;20415;-53
2022/07/03 00:38:50;0.00;0.00;0.62;0.00;0.00;0.62;2.50;1.90;;;28.10;26.00;;;;;;2259276;61;20809;-57
2022/07/03 00:41:36;0.00;0.00;0.62;0.00;0.00;0.62;3.30;1.80;;;28.10;26.00;;;;;;2259398;61;20812;-57
2022/07/03 00:44:22;0.00;0.00;0.62;0.00;0.00;0.62;1.90;1.70;;;28.00;26.00;;;;;;2258013;61;20369;-55
2022/07/03 00:47:08;0.00;0.00;0.62;0.00;0.00;0.62;2.63;2.30;;;28.00;26.00;;;;;;2258937;61;20360;-54
2022/07/03 00:49:54;0.00;0.00;0.62;0.00;0.00;0.62;2.50;1.93;;;28.00;26.10;;;;;;2259327;61;20380;-57
2022/07/03 00:52:47;0.00;0.00;0.62;0.00;0.00;0.62;3.33;2.50;;;28.00;26.10;;;;;;2258414;61;20794;-58
2022/07/03 00:55:36;0.00;0.00;0.62;0.00;0.00;0.62;2.60;2.10;;;28.00;26.10;;;;;;2259120;61;20364;-57
2022/07/03 00:58:23;0.00;0.00;0.62;0.00;0.00;0.62;2.03;1.77;;;28.00;26.10;;;;;;2259223;61;20753;-55
2022/07/03 01:01:09;0.00;0.00;0.62;0.00;0.00;0.62;2.40;2.10;;;28.00;26.20;;;;;;2260037;61;20357;-55
2022/07/03 01:04:16;0.00;0.00;0.62;0.00;0.00;0.62;4.00;2.00;;;28.00;26.10;;;;;;2260215;61;20368;-53
2022/07/03 01:07:06;0.00;0.00;0.62;0.00;0.00;0.62;2.53;2.30;;;28.00;26.20;;;;;;2258994;61;20357;-58
2022/07/03 01:10:00;0.00;0.00;0.62;0.00;0.00;0.62;2.20;2.00;;;28.00;26.20;;;;;;2259866;61;20383;-57
2022/07/03 01:13:00;0.00;0.00;0.62;0.00;0.00;0.62;3.03;2.27;;;28.00;26.20;;;;;;2259914;61;20365;-54
2022/07/03 01:16:00;0.00;0.00;0.62;0.00;0.00;0.62;4.00;2.20;;;28.00;26.20;;;;;;2259717;61;20407;-54
2022/07/03 01:18:50;0.00;0.00;0.62;0.00;0.00;0.62;2.60;1.90;;;28.00;26.20;;;;;;2259872;61;20407;-57
2022/07/03 01:21:41;0.00;0.00;0.62;0.00;0.00;0.62;2.13;1.87;;;27.90;26.20;;;;;;2259319;61;20404;-54
2022/07/03 01:24:51;0.00;0.00;0.62;0.00;0.00;0.62;2.33;2.00;;;27.90;26.20;;;;;;2259739;61;20361;-51
2022/07/03 01:27:59;0.00;0.00;0.62;0.00;0.00;0.62;3.90;2.50;;;27.90;26.20;;;;;;2259745;61;20361;-52
2022/07/03 01:30:48;0.00;0.00;0.62;0.00;0.00;0.62;3.30;2.33;;;27.80;26.20;;;;;;2259584;61;20430;-55
2022/07/03 01:33:35;0.00;0.00;0.62;0.00;0.00;0.62;3.80;2.43;;;27.80;26.20;;;;;;2259885;61;20353;-58
2022/07/03 01:36:23;0.00;0.00;0.62;0.00;0.00;0.62;2.87;2.40;;;27.70;26.20;;;;;;2258858;61;20402;-55
2022/07/03 01:39:10;0.00;0.00;0.62;0.00;0.00;0.62;3.10;2.03;;;27.70;26.30;;;;;;2259907;61;20389;-56
2022/07/03 01:42:00;0.00;0.00;0.62;0.00;0.00;0.62;2.33;2.13;;;27.70;26.30;;;;;;2259941;61;20404;-58
2022/07/03 01:44:49;0.00;0.00;0.62;0.00;0.00;0.62;2.70;2.03;;;27.70;26.30;;;;;;2258456;61;20407;-58
2022/07/03 01:47:34;0.00;0.00;0.62;0.00;0.00;0.62;2.77;2.17;;;27.60;26.40;;;;;;2259956;61;20503;-58
2022/07/03 01:50:21;0.00;0.00;0.62;0.00;0.00;0.62;3.50;2.30;;;27.60;26.40;;;;;;2259102;61;20447;-59
2022/07/03 01:53:09;0.00;0.00;0.62;0.00;0.00;0.62;2.43;2.03;;;27.60;26.40;;;;;;2259814;61;20443;-58
2022/07/03 01:55:58;0.00;0.00;0.62;0.00;0.00;0.62;2.97;2.10;;;27.50;26.40;;;;;;2259862;61;20442;-58
2022/07/03 01:58:42;0.00;0.00;0.62;0.00;0.00;0.62;3.17;2.30;;;27.50;26.40;;;;;;2258488;61;20407;-58
2022/07/03 02:01:40;0.00;0.00;0.62;0.00;0.00;0.62;2.87;2.27;;;27.50;26.50;;;;;;2259963;61;20377;-58
2022/07/03 02:04:32;0.00;0.00;0.62;0.00;0.00;0.62;2.37;2.03;;;27.50;26.50;;;;;;2259083;61;20361;-59
2022/07/03 02:07:29;0.00;0.00;0.62;0.00;0.00;0.62;2.57;2.13;;;27.40;26.60;;;;;;2259357;61;20407;-58
2022/07/03 02:10:17;0.00;0.00;0.62;0.00;0.00;0.62;3.13;2.10;;;27.40;26.60;;;;;;2259829;61;20408;-59
2022/07/03 02:13:12;0.00;0.00;0.62;0.00;0.00;0.62;2.10;1.90;;;27.40;26.70;;;;;;2258297;61;20365;-56
2022/07/03 02:15:58;0.00;0.00;0.62;0.00;0.00;0.62;2.60;2.17;;;27.40;26.80;;;;;;2260039;61;20764;-56
2022/07/03 02:18:55;0.00;0.00;0.62;0.00;0.00;0.62;2.40;2.00;;;27.30;26.80;;;;;;2259767;61;20393;-53
2022/07/03 02:21:48;0.00;0.00;0.62;0.00;0.00;0.62;5.43;2.50;;;27.30;26.80;;;;;;2258938;61;20909;-54
2022/07/03 02:24:43;0.00;0.00;0.62;0.00;0.00;0.62;2.83;2.20;;;27.20;26.80;;;;;;2259549;61;20401;-55
2022/07/03 02:27:35;0.00;0.00;0.62;0.00;0.00;0.62;2.50;1.53;;;27.20;26.80;;;;;;2258807;61;20653;-57
2022/07/03 02:30:23;0.00;0.00;0.62;0.00;0.00;0.62;2.80;2.10;;;27.20;26.90;;;;;;2259861;61;20467;-57
2022/07/03 02:33:13;0.00;0.00;0.62;0.00;0.00;0.62;3.33;2.30;;;27.20;26.90;;;;;;2259432;61;20392;-57
2022/07/03 02:36:00;0.00;0.00;0.62;0.00;0.00;0.62;2.63;2.00;;;27.10;27.00;;;;;;2258715;61;20365;-57
2022/07/03 02:38:48;0.00;0.00;0.62;0.00;0.00;0.62;3.00;2.40;;;27.10;27.00;;;;;;2259730;61;20721;-55
2022/07/03 02:41:45;0.00;0.00;0.62;0.00;0.00;0.62;2.60;2.03;;;27.00;27.00;;;;;;2259374;61;20353;-54
2022/07/03 02:44:42;0.00;0.00;0.62;0.00;0.00;0.62;3.50;2.53;;;27.00;27.00;;;;;;2259075;61;20391;-56
2022/07/03 02:47:36;0.00;0.00;0.62;0.00;0.00;0.62;2.53;2.33;;;27.00;27.10;;;;;;2259712;61;20944;-54
2022/07/03 02:50:25;0.00;0.00;0.62;0.00;0.00;0.62;2.70;2.10;;;27.00;27.10;;;;;;2258527;61;20444;-57
2022/07/03 02:53:21;0.00;0.00;0.62;0.00;0.00;0.62;2.87;2.30;;;26.90;27.10;;;;;;2259497;61;20785;-59
2022/07/03 02:56:15;0.00;0.00;0.62;0.00;0.00;0.62;2.70;2.10;;;26.90;27.20;;;;;;2259654;61;20381;-56
2022/07/03 02:59:12;0.00;0.00;0.62;0.00;0.00;0.62;2.60;1.63;;;26.90;27.20;;;;;;2258785;61;20384;-58
2022/07/03 03:02:06;0.00;0.00;0.62;0.00;0.00;0.62;1.70;1.60;;;26.90;27.20;;;;;;2259784;61;20776;-56
2022/07/03 03:04:58;0.00;0.00;0.62;0.00;0.00;0.62;3.33;2.53;;;26.90;27.20;;;;;;2258342;61;20361;-58
2022/07/03 03:07:58;0.00;0.00;0.62;0.00;0.00;0.62;2.70;2.00;;;26.80;27.20;;;;;;2259577;61;20361;-59
2022/07/03 03:10:46;0.00;0.00;0.62;0.00;0.00;0.62;2.87;2.10;;;26.90;27.20;;;;;;2259191;61;20393;-56
2022/07/03 03:13:32;0.00;0.00;0.62;0.00;0.00;0.62;2.53;2.10;;;26.80;27.10;;;;;;2258465;61;20369;-58
2022/07/03 03:16:17;0.00;0.00;0.62;0.00;0.00;0.62;2.90;1.80;;;26.80;27.10;;;;;;2259644;61;20353;-59
2022/07/03 03:19:01;0.00;0.00;0.62;0.00;0.00;0.62;2.37;1.90;;;26.80;27.10;;;;;;2258838;61;20388;-60
2022/07/03 03:21:58;0.00;0.00;0.62;0.00;0.00;0.62;3.40;1.80;;;26.80;27.20;;;;;;2259265;61;20353;-56
2022/07/03 03:24:44;0.00;0.00;0.62;0.00;0.00;0.62;1.93;1.70;;;26.80;27.20;;;;;;2259290;61;20445;-53
2022/07/03 03:27:30;0.00;0.00;0.62;0.00;0.00;0.62;1.87;1.60;;;26.80;27.10;;;;;;2258497;61;20366;-59
2022/07/03 03:30:15;0.00;0.00;0.62;0.00;0.00;0.62;1.93;1.73;;;26.80;27.10;;;;;;2259729;61;20380;-56
2022/07/03 03:33:00;0.00;0.00;0.62;0.00;0.00;0.62;3.90;2.00;;;26.80;27.10;;;;;;2259864;61;20401;-55
2022/07/03 03:35:45;0.00;0.00;0.62;0.00;0.00;0.62;2.50;1.57;;;26.80;27.10;;;;;;2259012;61;20356;-58
2022/07/03 03:38:29;0.00;0.00;0.62;0.00;0.00;0.62;2.87;1.93;;;26.80;27.10;;;;;;2259924;61;20361;-57
2022/07/03 03:41:14;0.00;0.00;0.62;0.00;0.00;0.62;2.87;1.80;;;26.80;27.10;;;;;;2259147;61;20388;-56
2022/07/03 03:44:01;0.00;0.00;0.62;0.00;0.00;0.62;2.10;1.70;;;26.80;27.10;;;;;;2259360;61;20415;-57
2022/07/03 03:46:46;0.00;0.00;0.62;0.00;0.00;0.62;2.60;2.00;;;26.80;27.10;;;;;;2259979;61;20369;-54
2022/07/03 03:49:31;0.00;0.00;0.62;0.00;0.00;0.62;2.10;1.83;;;26.80;27.10;;;;;;2259210;61;20552;-55
2022/07/03 03:52:16;0.00;0.00;0.62;0.00;0.00;0.62;2.20;1.80;;;26.70;27.00;;;;;;2259625;61;20381;-56
2022/07/03 03:55:01;0.00;0.00;0.62;0.00;0.00;0.62;1.60;1.50;;;26.80;27.10;;;;;;2259370;61;20357;-57
2022/07/03 03:57:46;0.00;0.00;0.62;0.00;0.00;0.62;2.60;1.60;;;26.70;27.00;;;;;;2258564;61;20839;-57
2022/07/03 04:00:32;0.00;0.00;0.62;0.00;0.00;0.62;3.10;1.60;;;26.70;27.00;;;;;;2259671;61;20905;-56
2022/07/03 04:03:17;0.00;0.00;0.62;0.00;0.00;0.62;1.87;1.53;;;26.70;27.00;;;;;;2258439;61;20429;-60
2022/07/03 04:06:02;0.00;0.00;0.62;0.00;0.00;0.62;2.00;1.60;;;26.70;27.00;;;;;;2259157;61;21002;-59
2022/07/03 04:08:47;0.00;0.00;0.62;0.00;0.00;0.62;2.60;1.97;;;26.70;27.10;;;;;;2259494;61;20439;-52
2022/07/03 04:11:32;0.00;0.00;0.62;0.00;0.00;0.62;2.13;1.63;;;26.70;27.10;;;;;;2258272;61;20800;-54
2022/07/03 04:14:17;0.00;0.00;0.62;0.00;0.00;0.62;2.63;1.60;;;26.70;27.10;;;;;;2259271;61;20981;-54
2022/07/03 04:17:04;0.00;0.00;0.62;0.00;0.00;0.62;2.13;1.70;;;26.70;27.10;;;;;;2259402;61;20437;-52
2022/07/03 04:19:49;0.00;0.00;0.62;0.00;0.00;0.62;2.30;1.63;;;26.70;27.10;;;;;;2257850;61;20426;-55
2022/07/03 04:22:33;0.00;0.00;0.62;0.00;0.00;0.62;1.97;1.63;;;26.70;27.10;;;;;;2259591;61;20877;-53
2022/07/03 04:25:18;0.00;0.00;0.62;0.00;0.00;0.62;2.10;1.90;;;26.70;27.20;;;;;;2258858;61;21141;-53
2022/07/03 04:28:04;0.00;0.00;0.62;0.00;0.00;0.62;2.40;1.70;;;26.70;27.20;;;;;;2256689;61;20392;-56
2022/07/03 04:30:49;0.00;0.00;0.62;0.00;0.00;0.62;4.50;2.00;;;26.70;27.20;;;;;;2255276;61;20397;-56
2022/07/03 04:33:35;0.00;0.00;0.62;0.00;0.00;0.62;2.87;1.77;;;26.70;27.20;;;;;;2254133;61;20932;-56
2022/07/03 04:36:20;0.00;0.00;0.62;0.00;0.00;0.62;2.53;1.90;;;26.70;27.20;;;;;;2255901;61;20550;-56
2022/07/03 04:39:05;0.00;0.00;0.62;0.00;0.00;0.62;2.50;1.97;;;26.70;27.20;;;;;;2256210;61;20929;-56
2022/07/03 04:41:50;0.00;0.00;0.62;0.00;0.00;0.62;3.17;1.53;;;26.70;27.20;;;;;;2255034;61;20362;-56
2022/07/03 04:44:35;0.00;0.00;0.62;0.00;0.00;0.62;2.80;1.73;;;26.70;27.20;;;;;;2255784;61;20377;-54
2022/07/03 04:47:20;0.00;0.00;0.62;0.00;0.00;0.62;2.00;1.80;;;26.70;27.20;;;;;;2255910;61;20899;-52
2022/07/03 04:50:07;0.00;0.00;0.62;0.00;0.00;0.62;3.57;1.90;;;26.70;27.20;;;;;;2255330;61;20385;-52
2022/07/03 04:52:52;0.00;0.00;0.62;0.00;0.00;0.62;2.43;2.07;;;26.70;27.20;;;;;;2255877;61;20365;-53
2022/07/03 04:55:37;0.00;0.00;0.62;0.00;0.00;0.62;2.63;1.70;;;26.70;27.20;;;;;;2254851;61;20362;-54
2022/07/03 04:58:22;0.00;0.00;0.62;0.00;0.00;0.62;1.93;1.73;;;26.70;27.70;;;;;;2255970;61;20361;-54
2022/07/03 05:01:07;0.00;0.00;0.62;0.00;0.00;0.62;2.20;2.00;;;26.70;27.20;;;;;;2256045;61;20846;-53
2022/07/03 05:03:52;0.00;0.00;0.62;0.00;0.00;0.62;2.10;1.60;;;26.70;27.20;;;;;;2254693;61;20777;-59
2022/07/03 05:06:38;0.00;0.00;0.62;0.00;0.00;0.62;2.07;1.63;;;26.70;27.20;;;;;;2255985;61;20404;-54
2022/07/03 05:09:22;0.00;0.00;0.62;0.00;0.00;0.62;2.50;1.67;;;26.70;27.30;;;;;;2255794;61;20432;-55
2022/07/03 05:12:08;0.00;0.00;0.62;0.00;0.00;0.62;2.10;1.80;;;26.70;27.20;;;;;;2255213;61;20448;-56
2022/07/03 05:14:53;0.00;0.00;0.62;0.00;0.00;0.62;2.43;2.00;;;26.70;27.30;;;;;;2491487;53;20353;-54
2022/07/03 05:17:38;0.00;0.00;0.62;0.00;0.00;0.62;2.40;1.90;;;26.70;27.30;;;;;;2255461;61;20874;-54
2022/07/03 05:20:28;0.00;0.00;0.62;0.00;0.00;0.62;2.10;1.70;;;26.70;27.40;;;;;;2256122;61;20459;-58
2022/07/03 05:23:14;0.00;0.00;0.62;0.00;0.00;0.62;3.90;2.03;;;26.70;27.40;;;;;;2255941;61;20405;-55
2022/07/03 05:25:59;0.00;0.00;0.62;0.00;0.00;0.62;1.80;1.50;;;26.70;27.40;;;;;;2254659;61;20370;-53
2022/07/03 05:28:44;0.00;0.00;0.62;0.00;0.00;0.62;3.00;1.40;;;26.70;27.40;;;;;;2256008;61;20365;-52
2022/07/03 05:31:29;0.00;0.00;0.62;0.00;0.00;0.62;1.87;1.60;;;26.80;27.40;;;;;;2255449;61;20533;-53
2022/07/03 05:34:14;0.00;0.00;0.62;0.00;0.00;0.62;2.93;1.53;;;26.80;27.40;;;;;;2254872;61;20389;-52
2022/07/03 05:36:59;0.00;0.00;0.62;0.00;0.00;0.62;2.00;1.80;;;26.80;27.40;;;;;;2255428;61;20450;-54
2022/07/03 05:39:45;0.00;0.00;0.62;0.00;0.00;0.62;1.60;1.30;;;26.80;27.50;;;;;;2254963;61;20433;-55
2022/07/03 05:42:30;0.00;0.00;0.62;0.00;0.00;0.62;3.37;1.90;;;26.80;27.50;;;;;;2255786;61;20362;-54
2022/07/03 05:45:14;0.00;0.00;0.62;0.00;0.00;0.62;2.60;1.63;;;26.80;27.50;;;;;;2255879;61;20373;-58
2022/07/03 05:47:59;0.00;0.00;0.62;0.00;0.00;0.62;2.47;1.93;;;26.80;27.50;;;;;;2254525;61;20413;-56
2022/07/03 05:50:44;0.00;0.00;0.62;0.00;0.00;0.62;2.00;1.50;;;26.80;27.50;;;;;;2255904;61;20397;-63
2022/07/03 05:53:29;0.00;0.00;0.62;0.00;0.00;0.62;1.90;1.50;;;26.80;27.50;;;;;;2255940;61;20377;-53
2022/07/03 05:56:15;0.00;0.00;0.62;0.00;0.00;0.62;1.60;1.37;;;26.80;27.50;;;;;;2490104;53;20358;-49
2022/07/03 05:59:00;0.00;0.00;0.62;0.00;0.00;0.62;1.80;1.50;;;26.80;27.60;;;;;;2256338;61;20427;-52
2022/07/03 06:01:45;0.00;0.00;0.62;0.00;0.00;0.62;2.27;1.50;;;26.80;27.60;;;;;;2255984;61;20463;-55
2022/07/03 06:04:30;0.00;0.00;0.62;0.00;0.00;0.62;2.63;1.70;;;26.80;27.70;;;;;;2255219;61;20366;-57
2022/07/03 06:07:16;0.00;0.00;0.62;0.00;0.00;0.62;2.80;1.90;;;26.80;27.80;;;;;;2254778;61;20773;-51
2022/07/03 06:10:01;0.00;0.00;0.62;0.00;0.00;0.62;1.83;1.40;;;26.80;27.80;;;;;;2254185;61;20413;-53
2022/07/03 06:12:47;0.00;0.00;0.62;0.00;0.00;0.62;3.47;1.70;;;26.80;27.90;;;;;;2255419;61;20370;-53
2022/07/03 06:15:32;0.00;0.00;0.62;0.00;0.00;0.62;2.50;1.60;;;26.80;28.00;;;;;;2255729;61;20408;-53
2022/07/03 06:18:17;0.00;0.00;0.62;0.00;0.00;0.62;2.37;1.70;;;26.80;28.10;;;;;;2254621;61;20405;-53
2022/07/03 06:21:01;0.00;0.00;0.62;0.00;0.00;0.62;1.90;1.70;;;26.80;28.10;;;;;;2255720;61;20358;-56
2022/07/03 06:23:46;0.00;0.00;0.62;0.00;0.00;0.62;2.17;1.50;;;26.80;28.20;;;;;;2255244;61;20366;-52
2022/07/03 06:26:31;0.00;0.00;0.62;0.00;0.00;0.62;2.10;1.80;;;26.90;28.30;;;;;;2255433;61;20365;-57
2022/07/03 06:29:17;0.00;0.00;0.62;0.00;0.00;0.62;2.40;2.00;;;26.90;28.20;;;;;;2255954;61;20385;-53
2022/07/03 06:32:03;0.00;0.00;0.62;0.00;0.00;0.62;1.80;1.60;;;26.90;28.20;;;;;;2254825;61;20389;-57
2022/07/03 06:34:48;0.00;0.00;0.62;0.00;0.00;0.62;4.57;1.73;;;26.90;28.10;;;;;;2255559;61;20882;-57
2022/07/03 06:37:33;0.00;0.00;0.62;0.00;0.00;0.62;2.00;1.80;;;27.00;28.10;;;;;;2255567;61;20362;-53
2022/07/03 06:40:17;0.00;0.00;0.62;0.00;0.00;0.62;2.73;1.40;;;27.00;28.10;;;;;;2255105;61;20389;-57
2022/07/03 06:43:02;0.00;0.00;0.62;0.00;0.00;0.62;1.50;1.27;;;27.00;28.10;;;;;;2256042;61;20362;-56
2022/07/03 06:45:48;0.00;0.00;0.62;0.00;0.00;0.62;5.07;1.73;;;27.00;28.10;;;;;;2255850;61;20389;-51
2022/07/03 06:48:34;0.00;0.00;0.62;0.00;0.00;0.62;3.50;1.53;;;27.10;28.20;;;;;;2254840;61;20362;-51
2022/07/03 06:51:18;0.00;0.00;0.62;0.00;0.00;0.62;2.53;1.67;;;27.10;28.20;;;;;;2256069;61;20953;-57
2022/07/03 06:54:04;0.00;0.00;0.62;0.00;0.00;0.62;2.20;1.80;;;27.10;28.60;;;;;;2254629;61;20366;-48
2022/07/03 06:56:48;0.00;0.00;0.62;0.00;0.00;0.62;1.93;1.70;;;27.20;28.20;;;;;;2255771;61;20456;-53
2022/07/03 06:59:34;0.00;0.00;0.62;0.00;0.00;0.62;2.00;1.50;;;27.20;28.20;;;;;;2255910;61;20413;-55
2022/07/03 07:02:20;0.00;0.00;0.62;0.00;0.00;0.62;2.13;1.53;;;27.20;28.10;;;;;;2254996;61;20756;-50
2022/07/03 07:05:06;0.00;0.00;0.62;0.00;0.00;0.62;1.80;1.60;;;27.30;28.10;;;;;;2255713;61;20505;-53
2022/07/03 07:07:51;0.00;0.00;0.62;0.00;0.00;0.62;2.60;2.17;;;27.30;28.00;;;;;;2255297;61;20366;-57
2022/07/03 07:10:35;0.00;0.00;0.62;0.00;0.00;0.62;3.83;1.40;;;27.30;28.00;;;;;;2255083;61;20382;-58
2022/07/03 07:13:20;0.00;0.00;0.62;0.00;0.00;0.62;1.80;1.40;;;27.40;28.00;;;;;;2255855;61;20420;-53
2022/07/03 07:16:06;0.00;0.00;0.62;0.00;0.00;0.62;3.70;2.00;;;27.40;28.00;;;;;;2258404;61;20368;-56
2022/07/03 07:18:52;0.00;0.00;0.62;0.00;0.00;0.62;2.13;1.57;;;27.40;27.90;;;;;;2259902;61;20364;-55
2022/07/03 07:21:37;0.00;0.00;0.62;0.00;0.00;0.62;1.83;1.63;;;27.40;27.90;;;;;;2260288;61;20890;-55
2022/07/03 07:24:21;0.00;0.00;0.62;0.00;0.00;0.62;2.67;1.40;;;27.40;27.90;;;;;;2258753;61;20412;-54
2022/07/03 07:27:06;0.00;0.00;0.62;0.00;0.00;0.62;3.50;1.63;;;27.50;27.90;;;;;;2260237;61;20848;-50
2022/07/03 07:29:51;0.00;0.00;0.62;0.00;0.00;0.62;2.37;1.77;;;27.50;27.90;;;;;;2260428;61;20396;-56
2022/07/03 07:32:36;0.00;0.00;0.62;0.00;0.00;0.62;2.73;2.10;;;27.60;27.90;;;;;;2258476;61;20404;-52
2022/07/03 07:35:23;0.00;0.00;0.62;0.00;0.00;0.62;2.70;1.80;;;27.60;27.80;;;;;;2259252;61;20361;-53
2022/07/03 07:38:07;0.00;0.00;0.62;0.00;0.00;0.62;2.10;1.80;;;27.60;27.70;;;;;;2258196;61;20570;-58
2022/07/03 07:40:52;0.00;0.00;0.62;0.00;0.00;0.62;2.67;1.80;;;27.70;27.80;;;;;;2258679;61;20372;-55
2022/07/03 07:43:37;0.00;0.00;0.62;0.00;0.00;0.62;2.17;1.87;;;27.70;27.80;;;;;;2257482;61;20389;-57
2022/07/03 07:46:21;0.00;0.00;0.62;0.00;0.00;0.62;1.90;1.60;;;27.70;27.70;;;;;;2258421;61;21061;-50
2022/07/03 07:49:07;0.00;0.00;0.62;0.00;0.00;0.62;1.90;1.70;;;27.70;27.70;;;;;;2259836;61;20504;-55
2022/07/03 07:51:55;0.00;0.00;0.62;0.00;0.00;0.62;1.80;1.50;;;27.80;27.70;;;;;;2259833;61;20388;-54
2022/07/03 07:54:39;0.00;0.00;0.62;0.00;0.00;0.62;2.50;2.20;;;27.80;27.70;;;;;;2258382;61;20400;-55
2022/07/03 07:57:24;0.00;0.00;0.62;0.00;0.00;0.62;2.30;1.80;;;27.80;27.80;;;;;;2259973;61;20360;-52
2022/07/03 08:00:12;0.00;0.00;0.62;0.00;0.00;0.62;2.00;1.80;;;27.80;27.80;;;;;;2259593;61;20385;-56
2022/07/03 08:06:00;0.00;0.00;0.62;0.00;0.00;0.62;2.47;2.23;;;27.90;27.80;;;;;;2259804;61;20364;-57
2022/07/03 08:08:46;0.00;0.00;0.62;0.00;0.00;0.62;2.60;2.10;;;27.90;27.80;;;;;;2258508;61;20824;-58
2022/07/03 08:11:31;0.00;0.00;0.62;0.00;0.00;0.62;3.30;2.67;;;28.00;27.80;;;;;;2260129;61;20460;-55
2022/07/03 08:14:16;0.00;0.00;0.62;0.00;0.00;0.62;3.10;2.20;;;28.00;27.80;;;;;;2259847;61;20420;-56
2022/07/03 08:17:00;0.00;0.00;0.62;0.00;0.00;0.62;2.50;1.80;;;28.00;27.70;;;;;;2258779;61;20364;-58
2022/07/03 08:19:46;0.00;0.00;0.62;0.00;0.00;0.62;2.47;2.20;;;28.00;27.70;;;;;;2259880;61;20412;-52
2022/07/03 08:22:31;0.00;0.00;0.62;0.00;0.00;0.62;5.53;1.70;;;28.00;27.70;;;;;;2259216;61;21008;-62
2022/07/03 08:25:18;0.00;0.00;0.62;0.00;0.00;0.62;2.40;2.00;;;28.00;27.60;;;;;;2259570;61;20360;-54
2022/07/03 08:28:03;0.00;0.00;0.62;0.00;0.00;0.62;2.17;1.77;;;28.10;27.60;;;;;;2259763;61;20357;-59
2022/07/03 08:30:48;0.00;0.00;0.62;0.00;0.00;0.62;2.50;2.10;;;28.10;27.60;;;;;;2258531;61;20953;-57
2022/07/03 08:33:34;0.00;0.00;0.62;0.00;0.00;0.62;2.50;1.70;;;28.10;27.40;;;;;;2259621;61;20364;-59
2022/07/03 08:36:19;0.00;0.00;0.62;0.00;0.00;0.62;2.20;1.83;;;28.10;27.40;;;;;;2259856;61;20396;-58
2022/07/03 08:39:03;0.00;0.00;0.62;0.00;0.00;0.62;2.90;1.60;;;28.20;27.30;;;;;;2258653;61;20784;-59
2022/07/03 08:41:51;0.00;0.00;0.62;0.00;0.00;0.62;1.83;1.53;;;28.20;27.30;;;;;;2260064;61;20453;-60
2022/07/03 08:44:37;0.00;0.00;0.62;0.00;0.00;0.62;3.40;2.20;;;28.20;27.20;;;;;;2259227;61;20373;-55
2022/07/03 08:47:23;0.00;0.00;0.62;0.00;0.00;0.62;2.13;1.57;;;28.20;27.20;;;;;;2259820;61;20774;-54
2022/07/03 08:50:11;0.00;0.00;0.62;0.00;0.00;0.62;1.60;1.47;;;28.20;27.20;;;;;;2259615;61;20400;-59
2022/07/03 08:52:55;0.00;0.00;0.62;0.00;0.00;0.62;2.30;1.80;;;28.20;27.20;;;;;;2258333;61;20491;-60
2022/07/03 08:55:40;0.00;0.00;0.62;0.00;0.00;0.62;2.03;1.80;;;28.30;27.20;;;;;;2259706;61;20361;-59
2022/07/03 08:58:29;0.00;0.00;0.62;0.00;0.00;0.62;1.50;1.10;;;28.30;27.10;;;;;;2259670;61;20931;-59
2022/07/03 09:01:16;0.00;0.00;0.62;0.00;0.00;0.62;3.03;2.10;;;28.30;27.20;;;;;;2258403;61;20369;-56
2022/07/03 09:04:03;0.00;0.00;0.62;0.00;0.00;0.62;1.60;1.40;;;28.30;27.10;;;;;;2259482;61;20403;-60
2022/07/03 09:06:49;0.00;0.00;0.62;0.00;0.00;0.62;3.17;1.87;;;28.40;26.90;;;;;;2259245;61;20364;-58
2022/07/03 09:09:35;0.00;0.00;0.62;0.00;0.00;0.62;1.97;1.50;;;28.40;27.00;;;;;;2259709;61;20384;-60
2022/07/03 09:12:20;0.00;0.00;0.62;0.00;0.00;0.62;3.40;1.77;;;28.40;26.90;;;;;;2259614;61;20473;-59
2022/07/03 09:15:09;0.00;0.00;0.62;0.00;0.00;0.62;1.50;1.30;;;28.40;26.90;;;;;;2258031;61;20358;-58
2022/07/03 09:17:59;0.00;0.00;0.62;0.00;0.00;0.62;5.77;1.60;;;28.40;26.90;;;;;;2259644;61;20774;-56
2022/07/03 09:20:44;0.00;0.00;0.62;0.00;0.00;0.62;2.37;1.67;;;28.40;26.80;;;;;;2259673;61;20381;-57
2022/07/03 09:23:37;0.00;0.00;0.62;0.00;0.00;0.62;2.63;1.33;;;28.40;26.60;;;;;;2258875;61;20372;-60
2022/07/03 09:26:25;0.00;0.00;0.62;0.00;0.00;0.62;2.13;1.40;;;28.50;26.40;;;;;;2260342;61;20416;-61
2022/07/03 09:29:13;0.00;0.00;0.62;0.00;0.00;0.62;2.20;1.23;;;28.50;26.50;;;;;;2259603;61;20929;-60
2022/07/03 09:31:59;0.00;0.00;0.62;0.00;0.00;0.62;1.50;1.40;;;28.50;26.40;;;;;;2260224;61;20472;-60
2022/07/03 09:34:44;0.00;0.00;0.62;0.00;0.00;0.62;2.07;1.33;;;28.50;26.40;;;;;;2260179;61;20357;-59
2022/07/03 09:37:33;0.00;0.00;0.62;0.00;0.00;0.62;1.97;1.47;;;28.50;26.40;;;;;;2258939;61;20368;-60
2022/07/03 09:40:19;0.00;0.00;0.62;0.00;0.00;0.62;1.67;1.23;;;28.60;26.50;;;;;;2260116;61;20381;-56
2022/07/03 09:43:07;0.00;0.00;0.62;0.00;0.00;0.62;2.60;1.53;;;28.50;26.40;;;;;;2259931;61;21301;-55
2022/07/03 09:45:56;0.00;0.00;0.62;0.00;0.00;0.62;2.60;1.90;;;28.60;26.40;;;;;;2259138;61;20372;-60
2022/07/03 09:48:42;0.00;0.00;0.62;0.00;0.00;0.62;2.17;1.67;;;28.50;26.20;;;;;;2260098;61;20361;-58
2022/07/03 09:51:28;0.00;0.00;0.62;0.00;0.00;0.62;2.20;1.20;;;28.60;26.30;;;;;;2259316;61;20389;-59
2022/07/03 09:54:16;0.00;0.00;0.62;0.00;0.00;0.62;1.90;1.27;;;28.60;26.30;;;;;;2260126;61;20408;-57
2022/07/03 09:57:00;0.00;0.00;0.62;0.00;0.00;0.62;2.00;1.47;;;28.60;26.30;;;;;;2260256;61;20783;-57
2022/07/03 09:59:45;0.00;0.00;0.62;0.00;0.00;0.62;2.90;1.97;;;28.60;26.40;;;;;;2258747;61;20435;-60
2022/07/03 10:02:31;0.00;0.00;0.62;0.00;0.00;0.62;2.10;1.53;;;28.60;26.30;;;;;;2260159;61;20361;-54
2022/07/03 10:05:17;0.00;0.00;0.62;0.00;0.00;0.62;1.60;1.30;;;28.60;26.20;;;;;;2260080;61;20361;-57
2022/07/03 10:08:05;0.00;0.00;0.62;0.00;0.00;0.62;2.00;1.13;;;28.70;26.20;;;;;;2259081;61;20423;-60
2022/07/03 10:10:50;0.00;0.00;0.62;0.00;0.00;0.62;1.57;1.27;;;28.70;26.00;;;;;;2260185;61;20381;-56
2022/07/03 10:13:39;0.00;0.00;0.62;0.00;0.00;0.62;2.37;1.53;;;28.70;26.00;;;;;;2259361;61;21066;-58
2022/07/03 10:16:26;0.00;0.00;0.62;0.00;0.00;0.62;2.70;1.30;;;28.70;25.90;;;;;;2260252;61;20361;-60
2022/07/03 10:19:15;0.00;0.00;0.62;0.00;0.00;0.62;2.27;1.23;;;28.70;25.80;;;;;;2260098;61;20424;-57
2022/07/03 10:22:05;0.00;0.00;0.62;0.00;0.00;0.62;1.90;1.50;;;28.80;25.90;;;;;;2258683;61;20779;-53
2022/07/03 10:24:52;0.00;0.00;0.62;0.00;0.00;0.62;3.80;1.73;;;28.80;25.90;;;;;;2259982;61;20913;-57
2022/07/03 10:27:41;0.00;0.00;0.62;0.00;0.00;0.62;1.80;1.47;;;28.80;25.70;;;;;;2260080;61;20365;-60
2022/07/03 10:30:26;0.00;0.00;0.62;0.00;0.00;0.62;2.30;1.37;;;28.80;25.70;;;;;;2258353;61;21013;-61
2022/07/03 10:33:11;0.00;0.00;0.62;0.00;0.00;0.62;2.50;1.40;;;28.90;25.10;;;;;;2259892;61;20364;-60
2022/07/03 10:35:57;0.00;0.00;0.62;0.00;0.00;0.62;2.03;1.47;;;28.90;25.10;;;;;;2258881;61;20380;-58
2022/07/03 10:38:48;0.00;0.00;0.62;0.00;0.00;0.62;3.30;1.53;;;28.90;25.20;;;;;;2259982;61;20766;-58
2022/07/03 10:45:08;0.00;0.00;0.62;0.00;0.00;0.62;1.63;1.37;;;28.90;25.40;;;;;;2258296;61;20450;-57
2022/07/03 10:47:54;0.00;0.00;0.62;0.00;0.00;0.62;2.23;1.43;;;29.00;25.40;;;;;;2259954;61;20402;-57
2022/07/03 10:50:40;0.00;0.00;0.62;0.00;0.00;0.62;2.60;1.50;;;29.00;25.40;;;;;;2259094;61;20381;-57
2022/07/03 10:53:24;0.00;0.00;0.62;0.00;0.00;0.62;1.67;1.20;;;29.00;25.40;;;;;;2259928;61;20996;-55
2022/07/03 10:56:11;0.00;0.00;0.62;0.00;0.00;0.62;1.83;1.27;;;29.00;25.50;;;;;;2260116;61;20449;-58
2022/07/03 10:58:57;0.00;0.00;0.62;0.00;0.00;0.62;2.00;1.77;;;29.00;25.50;;;;;;2258268;61;20426;-60
2022/07/03 11:01:41;0.00;0.00;0.62;0.00;0.00;0.62;1.70;1.60;;;29.10;25.60;;;;;;2260205;61;20403;-60
2022/07/03 11:04:26;0.00;0.00;0.62;0.00;0.00;0.62;1.57;1.10;;;29.10;25.60;;;;;;2259697;61;20891;-61
2022/07/03 11:07:11;0.00;0.00;0.62;0.00;0.00;0.62;2.77;1.33;;;29.10;25.60;;;;;;2258912;61;20388;-54